Time;durP1;ratioP1;P1;durP2;ratioP2;P2;SDS_P1;SDS_P2;PMS_P1;PMS_P2;Temp;Humidity;BMP_temperature;BMP_pressure;BME280_temperature;BME280_humidity;BME280_pressure;Samples;Min_cycle;Max_cycle;Signal;HPM_P1;HPM_P2
2024/01/21 00:01:49;;;;;;;9.73;6.50;;;;;;;16.91;27.40;101997.81;4232169;28;20621;-54
2024/01/21 00:03:50;;;;;;;8.35;6.43;;;;;;;16.91;27.49;101989.84;4232230;28;20044;-55
2024/01/21 00:05:52;;;;;;;8.63;6.35;;;;;;;16.95;27.17;101983.50;4231955;28;20048;-54
2024/01/21 00:07:54;;;;;;;8.55;6.47;;;;;;;16.96;27.14;101966.63;4232254;28;20043;-52
2024/01/21 00:09:56;;;;;;;8.00;6.10;;;;;;;16.97;27.24;101954.22;4232184;28;20399;-53
2024/01/21 00:11:57;;;;;;;8.63;6.05;;;;;;;16.96;27.11;101948.00;4231999;28;20047;-52
2024/01/21 00:13:59;;;;;;;7.00;5.47;;;;;;;16.93;27.08;101948.16;4231699;28;20043;-54
2024/01/21 00:16:01;;;;;;;7.20;5.53;;;;;;;16.92;27.17;101934.00;4231960;28;20078;-52
2024/01/21 00:18:03;;;;;;;8.23;6.07;;;;;;;16.90;27.22;101927.88;4231967;28;20125;-54
2024/01/21 00:20:05;;;;;;;;;;;;;;;16.87;27.22;101932.44;4232300;28;20066;-53
2024/01/21 00:22:06;;;;;;;8.32;6.00;;;;;;;16.86;27.34;101938.69;4231766;28;19919;-53
2024/01/21 00:24:08;;;;;;;8.20;5.72;;;;;;;16.91;27.35;101944.66;4231964;28;20050;-54
2024/01/21 00:26:10;;;;;;;9.25;6.40;;;;;;;16.92;27.03;101944.63;4231941;28;20155;-56
2024/01/21 00:28:12;;;;;;;7.30;5.65;;;;;;;16.95;27.11;101940.13;4231475;28;20468;-55
2024/01/21 00:30:14;;;;;;;7.65;5.70;;;;;;;16.97;26.99;101941.78;4231911;28;20044;-54
2024/01/21 00:32:15;;;;;;;7.60;5.80;;;;;;;16.98;27.19;101945.31;4231616;28;20126;-54
2024/01/21 00:34:17;;;;;;;8.02;6.03;;;;;;;16.91;27.14;101942.88;4231715;27;20078;-54
2024/01/21 00:36:19;;;;;;;6.97;5.40;;;;;;;16.92;27.21;101955.25;4231975;28;20052;-54
2024/01/21 00:38:20;;;;;;;7.47;5.55;;;;;;;16.92;26.81;101949.94;4231535;28;20544;-54
2024/01/21 00:40:22;;;;;;;7.72;5.53;;;;;;;16.90;27.32;101950.91;4231602;28;20045;-54
2024/01/21 00:42:23;;;;;;;7.05;5.38;;;;;;;16.86;27.02;101947.50;4231136;28;20402;-56
2024/01/21 00:44:25;;;;;;;8.02;5.38;;;;;;;16.88;27.28;101955.44;4231544;28;20161;-54
2024/01/21 00:46:29;;;;;;;7.05;5.45;;;;;;;16.92;27.30;101957.06;4231761;28;20518;-53
2024/01/21 00:48:30;;;;;;;7.55;5.65;;;;;;;16.90;27.13;101935.84;4231409;28;20048;-54
2024/01/21 00:50:32;;;;;;;6.68;5.47;;;;;;;16.94;27.11;101933.94;4231569;28;20130;-52
2024/01/21 00:52:34;;;;;;;6.97;5.35;;;;;;;16.95;27.29;101943.66;4231208;28;20048;-56
2024/01/21 00:54:36;;;;;;;8.48;5.68;;;;;;;16.97;27.13;101932.94;4231404;28;20044;-55
2024/01/21 00:56:37;;;;;;;7.28;5.30;;;;;;;16.96;27.05;101928.56;4231057;28;20043;-55
2024/01/21 00:58:39;;;;;;;8.10;5.68;;;;;;;16.93;26.92;101935.72;4231219;28;20087;-56
2024/01/21 01:00:41;;;;;;;7.28;5.18;;;;;;;16.90;27.20;101938.50;4231463;28;20047;-56
2024/01/21 01:02:43;;;;;;;7.85;5.38;;;;;;;16.83;27.11;101933.50;4231234;28;20035;-56
2024/01/21 01:04:44;;;;;;;7.60;5.50;;;;;;;16.85;27.03;101952.91;4231395;28;20047;-55
2024/01/21 01:06:46;;;;;;;7.28;5.20;;;;;;;16.86;26.94;101944.00;4231261;28;20043;-54
2024/01/21 01:08:48;;;;;;;6.78;5.10;;;;;;;16.88;27.23;101958.94;4231336;28;20043;-55
2024/01/21 01:10:50;;;;;;;7.22;5.40;;;;;;;16.90;27.16;101964.19;4230855;28;20047;-55
2024/01/21 01:12:52;;;;;;;7.22;5.03;;;;;;;16.94;27.18;101965.84;4229720;28;20055;-52
2024/01/21 01:14:53;;;;;;;;;;;;;;;16.96;27.06;101955.13;4231413;28;20112;-52
2024/01/21 01:16:55;;;;;;;7.30;4.82;;;;;;;16.92;27.14;101954.41;4231269;28;19919;-54
2024/01/21 01:18:57;;;;;;;6.70;4.88;;;;;;;16.96;27.31;101953.31;4231139;28;20048;-54
2024/01/21 01:20:59;;;;;;;6.60;4.95;;;;;;;16.95;27.17;101946.31;4231138;28;20055;-56
2024/01/21 01:23:05;;;;;;;6.88;4.90;;;;;;;16.93;26.96;101943.69;4231048;28;20046;-56
2024/01/21 01:25:07;;;;;;;8.10;5.13;;;;;;;16.90;26.96;101934.97;4230580;28;20079;-56
2024/01/21 01:27:09;;;;;;;7.53;5.15;;;;;;;16.89;27.04;101944.75;4230953;28;20043;-56
2024/01/21 01:29:11;;;;;;;6.72;5.00;;;;;;;16.89;27.08;101934.09;4230975;28;20043;-55
2024/01/21 01:31:19;;;;;;;8.00;5.20;;;;;;;16.90;27.15;101938.50;4230925;28;20050;-55
2024/01/21 01:33:21;;;;;;;6.18;4.65;;;;;;;16.92;27.16;101957.91;4230876;28;20126;-55
2024/01/21 01:35:25;;;;;;;7.05;5.28;;;;;;;16.93;27.16;101954.31;4230706;28;20050;-55
2024/01/21 01:37:27;;;;;;;7.18;4.85;;;;;;;16.95;26.88;101948.97;4230954;28;20054;-55
2024/01/21 01:39:28;;;;;;;7.22;5.10;;;;;;;16.96;26.83;101949.81;4229578;28;20067;-54
2024/01/21 01:41:30;;;;;;;6.82;5.05;;;;;;;16.98;27.11;101951.47;4230372;28;20054;-55
2024/01/21 01:43:32;;;;;;;7.03;5.03;;;;;;;16.95;26.92;101943.66;4230662;28;20101;-56
2024/01/21 01:45:33;;;;;;;6.90;4.82;;;;;;;16.95;27.18;101953.41;4230823;28;20051;-56
2024/01/21 01:47:35;;;;;;;5.97;4.47;;;;;;;16.92;27.16;101959.72;4230729;28;20055;-55
2024/01/21 01:49:40;;;;;;;6.57;4.70;;;;;;;16.89;27.08;101946.50;4229456;28;20571;-56
2024/01/21 01:51:42;;;;;;;6.70;4.57;;;;;;;16.92;27.04;101949.09;4230587;28;20039;-54
2024/01/21 01:53:44;;;;;;;7.18;5.03;;;;;;;16.92;27.07;101955.25;4230392;28;20050;-55
2024/01/21 01:55:46;;;;;;;7.22;5.50;;;;;;;16.97;26.98;101962.19;4230083;28;20048;-55
2024/01/21 01:57:48;;;;;;;;;;;;;;;16.96;26.98;101953.31;4231136;28;20445;-55
2024/01/21 01:59:49;;;;;;;7.63;5.22;;;;;;;16.94;27.18;101965.84;4230425;28;20108;-55
2024/01/21 02:01:51;;;;;;;7.30;4.70;;;;;;;16.99;27.10;101963.00;4230642;28;20043;-55
2024/01/21 02:03:53;;;;;;;6.55;4.78;;;;;;;16.98;26.94;101971.88;4230559;28;20459;-54
2024/01/21 02:05:55;;;;;;;7.55;5.13;;;;;;;16.97;27.04;101976.31;4230592;28;20074;-54
2024/01/21 02:07:56;;;;;;;;;;;;;;;16.93;27.12;101977.38;4230952;28;20475;-55
2024/01/21 02:09:59;;;;;;;6.80;4.63;;;;;;;16.89;27.01;101984.59;4230023;28;20020;-56
2024/01/21 02:12:01;;;;;;;6.70;4.68;;;;;;;16.90;27.23;101980.13;4230690;28;20044;-55
2024/01/21 02:14:02;;;;;;;6.25;4.60;;;;;;;16.92;27.19;101973.84;4230388;28;20039;-55
2024/01/21 02:16:04;;;;;;;7.18;4.70;;;;;;;16.94;26.96;101976.47;4230458;28;20084;-54
2024/01/21 02:18:06;;;;;;;7.35;4.90;;;;;;;16.93;27.02;101977.38;4230386;28;20052;-56
2024/01/21 02:20:09;;;;;;;6.20;4.60;;;;;;;16.96;26.84;101971.94;4230574;28;20043;-55
2024/01/21 02:22:12;;;;;;;5.93;4.43;;;;;;;17.01;27.07;101966.41;4230412;28;20047;-55
2024/01/21 02:24:14;;;;;;;5.88;4.35;;;;;;;17.01;26.91;101963.75;4230125;28;20040;-55
2024/01/21 02:26:16;;;;;;;6.93;4.88;;;;;;;17.02;26.97;101968.16;4230377;28;20499;-54
2024/01/21 02:28:17;;;;;;;6.40;4.40;;;;;;;16.98;27.03;101964.75;4230115;28;20076;-54
2024/01/21 02:30:19;;;;;;;6.38;4.70;;;;;;;16.97;26.95;101962.19;4230236;28;20126;-56
2024/01/21 02:32:20;;;;;;;6.78;5.00;;;;;;;16.94;27.24;101963.19;4230048;28;20121;-55
2024/01/21 02:34:22;;;;;;;6.68;4.60;;;;;;;16.92;26.86;101959.72;4230409;28;20130;-55
2024/01/21 02:36:24;;;;;;;6.10;4.47;;;;;;;16.92;27.10;101962.38;4230231;28;20440;-53
2024/01/21 02:38:25;;;;;;;6.78;4.43;;;;;;;16.93;27.00;101956.13;4229975;28;20047;-55
2024/01/21 02:40:27;;;;;;;5.63;4.22;;;;;;;16.97;27.21;101965.69;4230273;28;20469;-53
2024/01/21 02:42:29;;;;;;;6.30;4.35;;;;;;;16.89;27.10;101947.41;4230323;28;20047;-56
2024/01/21 02:44:30;;;;;;;7.38;5.10;;;;;;;16.99;27.00;101971.81;4229116;28;20075;-54
2024/01/21 02:46:32;;;;;;;6.05;4.45;;;;;;;17.01;27.10;101969.09;4230439;28;20048;-54
2024/01/21 02:48:33;;;;;;;6.88;4.38;;;;;;;16.98;27.13;101972.72;4230262;28;20421;-55
2024/01/21 02:50:35;;;;;;;6.40;4.40;;;;;;;16.99;26.84;101973.63;4229980;28;20566;-53
2024/01/21 02:52:37;;;;;;;6.63;4.43;;;;;;;16.96;27.06;101971.06;4229812;28;20043;-55
2024/01/21 02:54:38;;;;;;;5.55;4.10;;;;;;;16.93;27.20;101964.97;4229891;28;20044;-54
2024/01/21 02:56:40;;;;;;;6.68;4.45;;;;;;;16.91;27.16;101961.50;4229884;28;20048;-55
2024/01/21 02:58:42;;;;;;;6.05;4.25;;;;;;;16.92;27.07;101955.25;4229951;28;20134;-54
2024/01/21 03:00:43;;;;;;;6.13;4.28;;;;;;;16.92;27.01;101941.97;4230042;28;20086;-55
2024/01/21 03:02:45;;;;;;;6.50;4.28;;;;;;;16.96;27.22;101942.69;4229980;28;20046;-56
2024/01/21 03:04:47;;;;;;;6.28;4.57;;;;;;;16.95;27.18;101929.47;4230052;28;20054;-55
2024/01/21 03:06:49;;;;;;;5.97;4.20;;;;;;;16.89;27.10;101912.84;4229839;28;20097;-51
2024/01/21 03:08:50;;;;;;;;;;;;;;;16.98;27.05;101921.41;4230635;28;20050;-55
2024/01/21 03:10:53;;;;;;;6.30;4.40;;;;;;;16.95;27.15;101917.06;4228780;28;20409;-54
2024/01/21 03:12:55;;;;;;;5.07;3.67;;;;;;;16.94;27.14;101904.72;4229893;28;20051;-54
2024/01/21 03:14:56;;;;;;;6.03;4.22;;;;;;;16.94;27.44;101899.41;4228522;28;20097;-56
2024/01/21 03:16:58;;;;;;;6.32;4.20;;;;;;;16.89;26.97;101891.59;4230198;28;20503;-54
2024/01/21 03:19:00;;;;;;;7.03;4.75;;;;;;;16.92;26.90;101903.91;4230259;28;20051;-54
2024/01/21 03:21:01;;;;;;;5.93;4.20;;;;;;;16.92;27.06;101895.94;4230843;28;20100;-54
2024/01/21 03:23:03;;;;;;;6.30;4.30;;;;;;;16.90;27.10;101893.31;4232426;28;20050;-55
2024/01/21 03:25:05;;;;;;;6.22;4.47;;;;;;;16.96;27.17;101905.50;4232821;27;20050;-55
2024/01/21 03:27:07;;;;;;;5.65;4.13;;;;;;;16.98;27.31;101914.28;4232719;28;20051;-55
2024/01/21 03:29:08;;;;;;;6.13;4.18;;;;;;;16.99;26.97;101910.69;4232833;28;20459;-53
2024/01/21 03:31:10;;;;;;;5.90;4.35;;;;;;;16.99;26.85;101921.31;4232952;28;20090;-51
2024/01/21 03:33:11;;;;;;;6.10;4.25;;;;;;;16.97;27.10;101931.13;4232592;28;20057;-51
2024/01/21 03:35:13;;;;;;;6.68;4.60;;;;;;;16.98;26.99;101948.81;4231616;28;20052;-52
2024/01/21 03:37:15;;;;;;;6.53;4.50;;;;;;;16.96;27.06;101955.97;4232212;28;20050;-53
2024/01/21 03:39:17;;;;;;;6.20;4.25;;;;;;;16.94;27.20;101955.22;4232472;28;20044;-54
2024/01/21 03:41:19;;;;;;;6.95;4.57;;;;;;;16.93;27.09;101954.31;4232485;28;20067;-55
2024/01/21 03:43:21;;;;;;;6.03;3.83;;;;;;;16.96;27.10;101958.63;4232441;27;20047;-54
2024/01/21 03:45:23;;;;;;;;;;;;;;;16.96;27.06;101950.66;4233147;28;20490;-54
2024/01/21 03:47:24;;;;;;;6.70;4.60;;;;;;;16.97;27.11;101960.38;4232496;28;19951;-53
2024/01/21 03:49:28;;;;;;;7.43;4.60;;;;;;;17.00;26.99;101956.72;4232416;28;20044;-55
2024/01/21 03:51:29;;;;;;;6.00;4.20;;;;;;;16.98;26.97;101961.25;4232180;28;20053;-52
2024/01/21 03:53:31;;;;;;;5.97;4.28;;;;;;;17.01;27.31;101979.72;4232438;28;20051;-55
2024/01/21 03:55:33;;;;;;;6.18;4.10;;;;;;;17.01;27.15;101974.41;4232416;28;20516;-52
2024/01/21 03:57:36;;;;;;;6.03;4.22;;;;;;;16.97;26.88;101970.16;4232504;28;20482;-55
2024/01/21 03:59:39;;;;;;;6.13;4.38;;;;;;;16.99;26.87;101979.78;4232119;28;20422;-55
2024/01/21 04:01:44;;;;;;;6.38;4.05;;;;;;;16.96;26.92;101973.72;4232407;28;20067;-55
2024/01/21 04:03:46;;;;;;;6.32;3.90;;;;;;;16.98;26.91;101969.22;4232186;28;20047;-53
2024/01/21 04:05:48;;;;;;;5.80;4.18;;;;;;;16.96;27.11;101960.44;4232078;28;20122;-55
2024/01/21 04:07:50;;;;;;;5.55;4.00;;;;;;;17.01;26.91;101967.31;4232204;28;20400;-55
2024/01/21 04:09:51;;;;;;;5.55;4.00;;;;;;;17.03;27.00;101956.59;4230811;28;20063;-55
2024/01/21 04:11:53;;;;;;;5.80;4.13;;;;;;;17.04;26.88;101959.19;4232195;28;20051;-55
2024/01/21 04:13:57;;;;;;;6.10;4.10;;;;;;;17.03;26.80;101949.47;4232541;28;20043;-55
2024/01/21 04:15:59;;;;;;;5.70;3.92;;;;;;;17.06;26.86;101943.16;4232181;28;20517;-54
2024/01/21 04:18:01;;;;;;;6.85;3.90;;;;;;;17.01;27.02;101930.09;4232181;27;20065;-54
2024/01/21 04:20:07;;;;;;;;;;;;;;;16.99;26.90;101923.97;4232246;27;20044;-55
2024/01/21 04:22:09;;;;;;;5.50;3.70;;;;;;;16.98;26.82;101937.34;4231997;28;19919;-55
2024/01/21 04:24:11;;;;;;;5.25;3.85;;;;;;;16.96;27.18;101924.09;4231989;28;20047;-55
2024/01/21 04:26:12;;;;;;;5.07;3.30;;;;;;;16.97;26.99;101919.66;4232023;28;20052;-53
2024/01/21 04:28:14;;;;;;;5.43;3.42;;;;;;;16.98;26.91;101929.38;4231933;28;20039;-56
2024/01/21 04:30:16;;;;;;;6.07;3.40;;;;;;;16.99;26.87;101923.97;4231954;28;20468;-55
2024/01/21 04:32:18;;;;;;;5.53;3.42;;;;;;;17.02;26.93;101913.22;4231570;28;20063;-55
2024/01/21 04:34:20;;;;;;;5.07;3.35;;;;;;;17.03;27.15;101911.41;4231490;28;20076;-56
2024/01/21 04:36:25;;;;;;;5.53;3.33;;;;;;;17.05;26.99;101891.81;4231732;28;20050;-55
2024/01/21 04:38:26;;;;;;;5.40;3.60;;;;;;;17.04;26.79;101884.75;4231568;28;20047;-53
2024/01/21 04:40:28;;;;;;;5.55;3.50;;;;;;;16.98;26.88;101865.59;4231702;28;20095;-55
2024/01/21 04:42:30;;;;;;;5.20;3.30;;;;;;;16.97;26.82;101870.00;4231766;28;20047;-55
2024/01/21 04:44:32;;;;;;;5.07;3.50;;;;;;;17.00;27.07;101884.97;4231579;28;20048;-55
2024/01/21 04:46:33;;;;;;;4.95;3.50;;;;;;;16.96;26.98;101897.53;4231616;28;20078;-55
2024/01/21 04:48:35;;;;;;;5.72;3.70;;;;;;;16.97;27.01;101904.56;4231319;28;20487;-54
2024/01/21 04:50:37;;;;;;;;;;;;;;;16.99;27.05;101916.00;4231938;28;20456;-55
2024/01/21 04:52:39;;;;;;;5.20;3.35;;;;;;;16.99;27.01;101917.81;4231493;27;19920;-54
2024/01/21 04:54:40;;;;;;;5.22;3.33;;;;;;;17.01;26.79;101916.81;4231576;28;20047;-52
2024/01/21 04:56:42;;;;;;;5.95;3.55;;;;;;;17.02;27.08;101905.25;4230386;28;20089;-54
2024/01/21 04:58:44;;;;;;;6.10;3.50;;;;;;;17.04;27.03;101899.88;4231252;28;20426;-54
2024/01/21 05:00:46;;;;;;;5.60;3.28;;;;;;;17.02;26.98;101894.63;4231249;28;20135;-55
2024/01/21 05:02:48;;;;;;;5.10;3.28;;;;;;;17.03;27.09;101890.16;4230927;28;20140;-55
2024/01/21 05:04:50;;;;;;;5.40;3.50;;;;;;;17.01;26.90;101892.88;4231369;28;20043;-55
2024/01/21 05:06:51;;;;;;;5.13;3.30;;;;;;;16.97;27.03;101883.31;4230004;28;20078;-55
2024/01/21 05:08:54;;;;;;;4.68;2.83;;;;;;;16.98;26.83;101893.00;4231154;28;20050;-56
2024/01/21 05:10:55;;;;;;;;;;;;;;;16.97;26.98;101885.13;4231562;28;20044;-55
2024/01/21 05:12:57;;;;;;;6.33;3.40;;;;;;;16.97;26.93;101903.72;4231316;28;20004;-55
2024/01/21 05:14:59;;;;;;;4.80;3.38;;;;;;;17.01;26.97;101892.00;4229664;28;20281;-55
2024/01/21 05:17:00;;;;;;;4.82;3.13;;;;;;;17.03;26.84;101871.56;4230759;28;20070;-55
2024/01/21 05:19:02;;;;;;;5.13;3.08;;;;;;;17.03;26.95;101864.44;4230884;28;20043;-56
2024/01/21 05:21:05;;;;;;;5.10;3.30;;;;;;;17.05;26.77;101864.38;4230973;28;20050;-55
2024/01/21 05:23:06;;;;;;;4.90;3.05;;;;;;;17.04;26.77;101871.47;4231066;28;20054;-55
2024/01/21 05:25:08;;;;;;;5.47;3.33;;;;;;;17.05;26.94;101862.56;4231360;28;20179;-55
2024/01/21 05:27:10;;;;;;;4.50;3.13;;;;;;;17.03;27.00;101860.91;4230801;28;20039;-56
2024/01/21 05:29:12;;;;;;;4.90;2.95;;;;;;;17.01;27.00;101865.44;4230916;28;20076;-54
2024/01/21 05:31:13;;;;;;;;;;;;;;;16.97;26.85;101864.69;4231439;28;20046;-56
2024/01/21 05:33:15;;;;;;;5.22;3.33;;;;;;;16.98;27.16;101852.28;4230532;28;19919;-54
2024/01/21 05:35:18;;;;;;;4.78;3.15;;;;;;;17.00;27.19;101845.09;4229955;28;20489;-53
2024/01/21 05:37:20;;;;;;;5.22;3.05;;;;;;;17.04;27.16;101842.25;4230944;28;20048;-54
2024/01/21 05:39:22;;;;;;;;;;;;;;;17.04;26.97;101831.59;4231226;28;20055;-55
2024/01/21 05:41:24;;;;;;;4.43;3.10;;;;;;;17.04;27.15;101839.56;4230724;28;19928;-55
2024/01/21 05:43:25;;;;;;;5.32;3.00;;;;;;;17.07;27.20;101839.47;4229916;28;20502;-55
2024/01/21 05:45:27;;;;;;;5.07;2.95;;;;;;;17.06;26.89;101856.34;4230705;28;20413;-54
2024/01/21 05:47:29;;;;;;;;;;;;;;;17.06;27.03;101852.78;4229703;28;20047;-54
2024/01/21 05:49:31;;;;;;;4.25;2.42;;;;;;;17.03;27.04;101858.25;4230762;28;19970;-55
2024/01/21 05:51:33;;;;;;;5.38;3.30;;;;;;;17.02;27.08;101854.75;4230744;28;20498;-55
2024/01/21 05:53:35;;;;;;;4.47;3.00;;;;;;;17.00;27.06;101848.63;4230513;28;20040;-51
2024/01/21 05:55:37;;;;;;;4.67;3.10;;;;;;;17.01;27.15;101828.22;4230463;28;20035;-55
2024/01/21 05:57:40;;;;;;;4.90;3.00;;;;;;;17.03;27.17;101807.75;4229394;28;20164;-54
2024/01/21 05:59:42;;;;;;;4.22;2.65;;;;;;;17.03;27.15;101829.88;4230514;28;20066;-55
2024/01/21 06:01:46;;;;;;;4.85;2.63;;;;;;;17.05;27.21;101851.94;4230297;28;20044;-55
2024/01/21 06:03:48;;;;;;;5.00;2.70;;;;;;;17.11;27.19;101860.56;4230387;28;20069;-54
2024/01/21 06:05:50;;;;;;;4.75;3.00;;;;;;;17.09;27.15;101861.50;4230511;28;20047;-53
2024/01/21 06:07:52;;;;;;;4.70;2.67;;;;;;;17.09;27.03;101850.00;4230532;28;20221;-55
2024/01/21 06:09:53;;;;;;;4.72;2.90;;;;;;;17.07;26.74;101873.13;4230634;28;20418;-51
2024/01/21 06:11:55;;;;;;;4.15;2.90;;;;;;;17.03;27.22;101880.38;4229203;28;20043;-54
2024/01/21 06:13:57;;;;;;;4.32;2.67;;;;;;;17.01;27.15;101881.38;4230539;28;20051;-55
2024/01/21 06:16:01;;;;;;;5.10;3.28;;;;;;;17.00;27.33;101888.50;4229882;28;20398;-55
2024/01/21 06:18:03;;;;;;;5.22;2.90;;;;;;;17.00;27.12;101883.19;4230420;28;20120;-53
2024/01/21 06:20:09;;;;;;;4.18;2.60;;;;;;;17.04;27.29;101881.25;4230699;28;20525;-54
2024/01/21 06:22:11;;;;;;;4.72;2.88;;;;;;;17.05;27.29;101883.84;4230371;28;20523;-54
2024/01/21 06:24:13;;;;;;;4.68;2.85;;;;;;;17.07;27.29;101881.09;4229315;28;20059;-56
2024/01/21 06:26:22;;;;;;;4.18;2.95;;;;;;;17.09;27.27;101884.56;4230292;28;20112;-53
2024/01/21 06:28:24;;;;;;;4.22;2.50;;;;;;;17.09;27.32;101865.97;4230123;28;20101;-55
2024/01/21 06:30:25;;;;;;;4.57;2.72;;;;;;;17.10;27.07;101873.00;4230109;28;20039;-55
2024/01/21 06:32:27;;;;;;;4.97;2.65;;;;;;;17.08;27.17;101878.41;4230209;28;20046;-54
2024/01/21 06:34:28;;;;;;;4.53;2.70;;;;;;;17.07;27.41;101884.66;4230340;28;20147;-56
2024/01/21 06:36:30;;;;;;;4.30;2.70;;;;;;;17.06;27.30;101880.25;4230101;28;20130;-55
2024/01/21 06:38:32;;;;;;;4.72;2.60;;;;;;;17.03;27.44;101859.13;4229935;28;20050;-55
2024/01/21 06:40:34;;;;;;;;;;;;;;;17.05;27.28;101861.72;4230648;28;20069;-58
2024/01/21 06:42:36;;;;;;;4.30;2.60;;;;;;;17.06;27.37;101882.03;4230036;28;20386;-54
2024/01/21 06:44:38;;;;;;;4.63;2.50;;;;;;;17.09;27.42;101877.44;4229718;28;20284;-54
2024/01/21 06:46:40;;;;;;;5.95;2.70;;;;;;;17.12;27.32;101868.50;4230090;28;20135;-54
2024/01/21 06:48:41;;;;;;;4.40;2.55;;;;;;;17.13;27.26;101867.53;4228874;28;20039;-54
2024/01/21 06:50:48;;;;;;;4.60;2.67;;;;;;;17.12;27.45;101871.16;4229901;28;20108;-48
2024/01/21 06:52:50;;;;;;;4.68;2.50;;;;;;;17.12;27.46;101875.59;4229983;28;20074;-55
2024/01/21 06:54:51;;;;;;;5.05;2.75;;;;;;;17.11;27.40;101896.00;4230598;28;20057;-53
2024/01/21 06:56:53;;;;;;;4.80;2.90;;;;;;;17.11;27.52;101889.81;4233468;28;20050;-55
2024/01/21 06:58:54;;;;;;;4.85;2.47;;;;;;;17.08;27.47;101902.31;4232704;28;20430;-54
2024/01/21 07:00:56;;;;;;;4.55;2.63;;;;;;;17.05;27.76;101905.09;4233088;28;20093;-53
2024/01/21 07:02:58;;;;;;;4.43;2.55;;;;;;;17.05;27.62;101894.47;4233365;28;20476;-54
2024/01/21 07:04:59;;;;;;;4.82;2.92;;;;;;;17.07;27.50;101897.94;4233280;28;20048;-55
2024/01/21 07:07:01;;;;;;;4.72;2.80;;;;;;;17.11;27.43;101898.66;4231872;28;20493;-54
2024/01/21 07:09:04;;;;;;;3.92;2.40;;;;;;;17.11;27.46;101906.63;4233196;28;20050;-56
2024/01/21 07:11:08;;;;;;;4.93;2.78;;;;;;;17.11;27.59;101917.25;4233260;28;20062;-54
2024/01/21 07:13:11;;;;;;;4.85;2.80;;;;;;;17.12;27.54;101926.97;4232653;28;20122;-55
2024/01/21 07:15:12;;;;;;;4.55;2.80;;;;;;;17.11;27.65;101941.19;4233331;28;20089;-55
2024/01/21 07:17:14;;;;;;;4.85;2.83;;;;;;;17.09;27.56;101945.69;4232881;28;20128;-55
2024/01/21 07:19:16;;;;;;;4.63;2.75;;;;;;;17.06;27.83;101941.38;4233256;28;20054;-56
2024/01/21 07:21:18;;;;;;;4.78;2.70;;;;;;;17.04;27.67;101935.25;4232998;28;20439;-56
2024/01/21 07:23:20;;;;;;;4.97;2.90;;;;;;;17.04;27.71;101932.59;4233034;28;20046;-54
2024/01/21 07:25:22;;;;;;;4.25;2.60;;;;;;;17.05;27.69;101925.50;4232722;28;20056;-53
2024/01/21 07:27:24;;;;;;;4.82;2.78;;;;;;;17.06;27.81;101936.06;4232818;27;20044;-54
2024/01/21 07:29:25;;;;;;;4.38;2.60;;;;;;;17.09;27.80;101938.56;4232531;28;20055;-55
2024/01/21 07:31:32;;;;;;;4.97;2.80;;;;;;;17.09;27.66;101938.56;4232925;28;20160;-54
2024/01/21 07:33:34;;;;;;;;;;;;;;;17.10;27.59;101950.09;4233365;28;20048;-53
2024/01/21 07:35:36;;;;;;;4.93;3.10;;;;;;;17.10;27.73;101939.47;4232749;28;20022;-52
2024/01/21 07:37:37;;;;;;;5.03;2.70;;;;;;;17.08;27.55;101914.72;4232512;28;20078;-52
2024/01/21 07:39:39;;;;;;;4.90;2.75;;;;;;;17.09;27.73;101919.97;4232664;28;20039;-54
2024/01/21 07:41:41;;;;;;;4.60;2.63;;;;;;;17.06;28.19;101914.81;4232565;28;20508;-51
2024/01/21 07:43:42;;;;;;;4.57;2.50;;;;;;;16.97;27.98;101914.34;4232277;28;20123;-54
2024/01/21 07:45:44;;;;;;;5.40;2.70;;;;;;;16.96;27.70;101926.75;4232467;28;20117;-53
2024/01/21 07:47:46;;;;;;;;;;;;;;;17.06;27.71;101944.03;4233052;28;20127;-54
2024/01/21 07:49:48;;;;;;;4.43;2.55;;;;;;;17.08;27.72;101952.81;4232529;28;19927;-54
2024/01/21 07:51:49;;;;;;;4.47;2.83;;;;;;;17.13;27.66;101962.38;4232393;28;20101;-54
2024/01/21 07:53:51;;;;;;;4.63;2.65;;;;;;;17.15;27.77;101968.50;4232325;28;20047;-54
2024/01/21 07:55:54;;;;;;;4.47;2.70;;;;;;;17.17;27.75;101977.25;4232393;28;20482;-54
2024/01/21 07:57:55;;;;;;;4.90;2.70;;;;;;;17.17;27.92;101972.81;4232119;28;20490;-54
2024/01/21 07:59:57;;;;;;;4.75;2.70;;;;;;;17.16;27.69;101972.91;4232139;28;20138;-53
2024/01/21 08:01:59;;;;;;;4.57;2.70;;;;;;;17.14;27.78;101972.09;4232354;28;20481;-54
2024/01/21 08:04:01;;;;;;;5.78;2.60;;;;;;;17.11;27.75;101969.53;4232338;28;20104;-54
2024/01/21 08:06:04;;;;;;;4.32;2.35;;;;;;;17.09;27.92;101975.78;4232149;28;20308;-53
2024/01/21 08:08:06;;;;;;;4.90;2.72;;;;;;;17.10;27.76;101982.00;4231955;28;20489;-53
2024/01/21 08:10:09;;;;;;;5.05;2.53;;;;;;;17.13;27.80;101983.66;4232169;28;20047;-54
2024/01/21 08:12:10;;;;;;;4.72;2.90;;;;;;;17.15;27.86;101973.81;4232063;28;20049;-55
2024/01/21 08:14:12;;;;;;;4.32;2.70;;;;;;;17.18;27.95;101981.66;4232204;28;20039;-53
2024/01/21 08:16:14;;;;;;;4.45;2.88;;;;;;;17.20;27.81;101979.78;4232185;28;20052;-55
2024/01/21 08:18:19;;;;;;;4.82;2.83;;;;;;;17.19;27.97;101978.06;4231841;28;20079;-53
2024/01/21 08:20:21;;;;;;;4.70;2.60;;;;;;;17.18;27.73;101979.88;4232150;28;20104;-54
2024/01/21 08:22:22;;;;;;;4.70;2.53;;;;;;;17.14;27.88;101972.09;4232035;28;20047;-54
2024/01/21 08:24:24;;;;;;;5.15;2.97;;;;;;;17.15;27.81;101974.66;4232110;28;20078;-53
2024/01/21 08:26:26;;;;;;;4.47;2.70;;;;;;;17.14;27.99;101991.53;4231591;28;20052;-54
2024/01/21 08:28:28;;;;;;;4.80;2.50;;;;;;;17.12;27.85;102003.19;4231739;28;20043;-52
2024/01/21 08:30:30;;;;;;;4.35;2.60;;;;;;;17.12;27.88;102000.53;4231668;28;20071;-54
2024/01/21 08:32:31;;;;;;;;;;;;;;;17.12;28.06;102011.16;4232325;28;20040;-53
2024/01/21 08:34:33;;;;;;;4.90;2.60;;;;;;;17.15;28.24;102027.84;4232118;28;20530;-51
2024/01/21 08:36:35;;;;;;;5.10;2.75;;;;;;;17.20;28.05;102038.28;4231704;27;20105;-54
2024/01/21 08:38:38;;;;;;;4.65;2.75;;;;;;;17.22;27.88;102047.91;4231718;28;20096;-54
2024/01/21 08:40:44;;;;;;;4.88;2.80;;;;;;;17.22;27.97;102047.06;4231340;28;20071;-54
2024/01/21 08:42:46;;;;;;;5.00;2.85;;;;;;;17.25;28.09;102062.88;4231661;28;20607;-53
2024/01/21 08:44:47;;;;;;;4.78;2.75;;;;;;;17.23;27.84;102068.25;4231882;28;20128;-55
2024/01/21 08:46:49;;;;;;;4.30;2.63;;;;;;;17.20;27.98;102073.69;4231599;28;20052;-54
2024/01/21 08:48:51;;;;;;;4.80;2.80;;;;;;;17.18;28.36;102075.56;4231533;28;20043;-53
2024/01/21 08:50:53;;;;;;;6.10;2.83;;;;;;;17.16;28.02;102073.91;4230279;28;20040;-53
2024/01/21 08:53:00;;;;;;;4.93;2.78;;;;;;;17.17;28.25;102072.97;4231325;28;20115;-53
2024/01/21 08:55:08;;;;;;;4.88;2.78;;;;;;;17.16;27.92;102073.91;4231018;28;20487;-53
2024/01/21 08:57:11;;;;;;;4.82;2.80;;;;;;;17.18;27.97;102066.72;4231432;28;20047;-55
2024/01/21 08:59:12;;;;;;;5.82;2.70;;;;;;;17.19;28.15;102060.47;4231042;28;20052;-54
2024/01/21 09:01:15;;;;;;;4.90;2.33;;;;;;;17.18;28.18;102064.94;4231224;28;20048;-54
2024/01/21 09:03:17;;;;;;;4.35;2.63;;;;;;;17.20;28.05;102065.72;4231261;28;20044;-54
2024/01/21 09:05:21;;;;;;;5.25;2.55;;;;;;;17.24;28.15;102067.34;4231095;28;20146;-54
2024/01/21 09:07:22;;;;;;;4.25;2.50;;;;;;;17.23;28.12;102070.03;4231306;28;20097;-53
2024/01/21 09:09:24;;;;;;;4.35;2.70;;;;;;;17.20;28.07;102064.88;4230954;28;20715;-53
2024/01/21 09:11:26;;;;;;;4.88;2.90;;;;;;;17.17;28.13;102063.22;4231166;28;20050;-53
2024/01/21 09:13:27;;;;;;;5.43;2.90;;;;;;;17.16;28.05;102065.94;4231341;28;20055;-52
2024/01/21 09:15:29;;;;;;;5.32;2.83;;;;;;;17.17;28.22;102055.22;4231365;28;20043;-53
2024/01/21 09:17:32;;;;;;;4.68;2.50;;;;;;;17.19;28.27;102052.50;4230931;28;20047;-53
2024/01/21 09:19:33;;;;;;;5.05;2.50;;;;;;;17.23;28.03;102056.75;4230174;28;20450;-50
2024/01/21 09:21:36;;;;;;;5.00;2.63;;;;;;;17.24;28.36;102059.38;4231113;28;20049;-51
2024/01/21 09:23:37;;;;;;;4.53;2.40;;;;;;;17.28;28.17;102069.84;4230724;28;20082;-54
2024/01/21 09:25:39;;;;;;;5.22;2.67;;;;;;;17.25;28.26;102057.56;4231033;27;20048;-53
2024/01/21 09:27:41;;;;;;;;;;;;;;;17.26;28.16;102077.91;4231447;28;20067;-50
2024/01/21 09:29:43;;;;;;;5.00;2.70;;;;;;;17.25;28.14;102073.50;4231102;28;19926;-53
2024/01/21 09:31:55;;;;;;;4.72;2.65;;;;;;;17.22;28.30;102069.19;4230939;28;20123;-52